sensor_id;sensor_type;location;lat;lon;timestamp;pressure;altitude;pressure_sealevel;temperature;humidity
47636;BME280;33364;50.766;15.338;2023-09-30T00:00:44;95455.22;;;16.15;81.47
47636;BME280;33364;50.766;15.338;2023-09-30T00:03:30;95464.66;;;16.21;81.57
47636;BME280;33364;50.766;15.338;2023-09-30T00:05:55;95454.00;;;16.21;81.19
47636;BME280;33364;50.766;15.338;2023-09-30T00:08:21;95470.16;;;16.24;81.34
47636;BME280;33364;50.766;15.338;2023-09-30T00:10:47;95472.25;;;16.36;80.63
47636;BME280;33364;50.766;15.338;2023-09-30T00:13:13;95474.56;;;16.29;81.12
47636;BME280;33364;50.766;15.338;2023-09-30T00:15:39;95469.72;;;16.31;80.97
47636;BME280;33364;50.766;15.338;2023-09-30T00:18:06;95473.66;;;16.33;80.36
47636;BME280;33364;50.766;15.338;2023-09-30T00:20:32;95477.03;;;16.17;81.19
47636;BME280;33364;50.766;15.338;2023-09-30T00:22:58;95474.53;;;16.20;81.11
47636;BME280;33364;50.766;15.338;2023-09-30T00:25:24;95473.41;;;16.13;81.24
47636;BME280;33364;50.766;15.338;2023-09-30T00:27:49;95476.53;;;16.06;82.11
47636;BME280;33364;50.766;15.338;2023-09-30T00:30:15;95471.06;;;16.11;81.62
47636;BME280;33364;50.766;15.338;2023-09-30T00:32:41;95473.41;;;16.13;81.71
47636;BME280;33364;50.766;15.338;2023-09-30T00:35:07;95474.84;;;16.19;81.42
47636;BME280;33364;50.766;15.338;2023-09-30T00:37:38;95470.47;;;16.23;81.14
47636;BME280;33364;50.766;15.338;2023-09-30T00:40:05;95470.94;;;16.25;80.84
47636;BME280;33364;50.766;15.338;2023-09-30T00:42:31;95464.97;;;16.19;81.18
47636;BME280;33364;50.766;15.338;2023-09-30T00:44:57;95474.09;;;16.27;80.56
47636;BME280;33364;50.766;15.338;2023-09-30T00:47:23;95470.94;;;16.25;80.54
47636;BME280;33364;50.766;15.338;2023-09-30T00:49:50;95475.94;;;16.18;81.04
47636;BME280;33364;50.766;15.338;2023-09-30T00:52:17;95472.44;;;16.09;81.05
47636;BME280;33364;50.766;15.338;2023-09-30T00:54:44;95467.75;;;16.05;81.11
47636;BME280;33364;50.766;15.338;2023-09-30T00:57:10;95464.59;;;16.03;81.08
47636;BME280;33364;50.766;15.338;2023-09-30T00:59:37;95462.56;;;16.09;81.13
47636;BME280;33364;50.766;15.338;2023-09-30T01:02:03;95474.66;;;16.07;81.02
47636;BME280;33364;50.766;15.338;2023-09-30T01:04:31;95464.44;;;16.09;81.41
47636;BME280;33364;50.766;15.338;2023-09-30T01:06:58;95469.63;;;16.14;81.19
47636;BME280;33364;50.766;15.338;2023-09-30T01:09:24;95467.88;;;16.00;81.63
47636;BME280;33364;50.766;15.338;2023-09-30T01:11:51;95464.13;;;16.01;81.47
47636;BME280;33364;50.766;15.338;2023-09-30T01:14:27;95465.22;;;16.00;81.95
47636;BME280;33364;50.766;15.338;2023-09-30T01:16:54;95468.47;;;15.97;81.79
47636;BME280;33364;50.766;15.338;2023-09-30T01:19:20;95470.97;;;15.94;82.04
47636;BME280;33364;50.766;15.338;2023-09-30T01:21:46;95475.09;;;16.00;82.01
47636;BME280;33364;50.766;15.338;2023-09-30T01:24:16;95464.91;;;16.02;81.38
47636;BME280;33364;50.766;15.338;2023-09-30T01:26:42;95465.53;;;16.08;81.61
47636;BME280;33364;50.766;15.338;2023-09-30T01:29:09;95470.00;;;16.21;80.20
47636;BME280;33364;50.766;15.338;2023-09-30T01:31:38;95463.25;;;16.23;80.85
47636;BME280;33364;50.766;15.338;2023-09-30T01:34:05;95457.81;;;16.37;79.66
47636;BME280;33364;50.766;15.338;2023-09-30T01:36:31;95462.53;;;16.40;78.99
47636;BME280;33364;50.766;15.338;2023-09-30T01:38:57;95473.03;;;16.45;79.69
47636;BME280;33364;50.766;15.338;2023-09-30T01:41:24;95476.34;;;16.42;79.67
47636;BME280;33364;50.766;15.338;2023-09-30T01:43:49;95473.97;;;16.40;79.57
47636;BME280;33364;50.766;15.338;2023-09-30T01:46:15;95470.72;;;16.52;78.56
47636;BME280;33364;50.766;15.338;2023-09-30T01:48:41;95476.44;;;16.59;77.96
47636;BME280;33364;50.766;15.338;2023-09-30T01:51:07;95475.63;;;16.59;78.47
47636;BME280;33364;50.766;15.338;2023-09-30T01:53:33;95475.31;;;16.60;78.47
47636;BME280;33364;50.766;15.338;2023-09-30T01:55:59;95471.25;;;16.63;78.90
47636;BME280;33364;50.766;15.338;2023-09-30T01:58:25;95468.28;;;16.64;78.07
47636;BME280;33364;50.766;15.338;2023-09-30T02:00:54;95475.34;;;16.69;78.18
47636;BME280;33364;50.766;15.338;2023-09-30T02:03:26;95468.69;;;16.58;78.96
47636;BME280;33364;50.766;15.338;2023-09-30T02:05:52;95456.91;;;16.50;79.48
47636;BME280;33364;50.766;15.338;2023-09-30T02:08:17;95465.25;;;16.57;78.65
47636;BME280;33364;50.766;15.338;2023-09-30T02:10:44;95460.72;;;16.66;77.92
47636;BME280;33364;50.766;15.338;2023-09-30T02:13:09;95463.41;;;16.66;78.65
47636;BME280;33364;50.766;15.338;2023-09-30T02:15:39;95466.41;;;16.65;78.21
47636;BME280;33364;50.766;15.338;2023-09-30T02:18:06;95474.56;;;16.68;78.39
47636;BME280;33364;50.766;15.338;2023-09-30T02:20:32;95473.28;;;16.66;78.35
47636;BME280;33364;50.766;15.338;2023-09-30T02:22:58;95470.47;;;16.62;78.30
47636;BME280;33364;50.766;15.338;2023-09-30T02:25:24;95465.28;;;16.66;78.49
47636;BME280;33364;50.766;15.338;2023-09-30T02:27:50;95472.38;;;16.70;78.04
47636;BME280;33364;50.766;15.338;2023-09-30T02:30:16;95478.31;;;16.67;77.91
47636;BME280;33364;50.766;15.338;2023-09-30T02:32:43;95476.13;;;16.69;77.71
47636;BME280;33364;50.766;15.338;2023-09-30T02:35:12;95485.53;;;16.67;78.21
47636;BME280;33364;50.766;15.338;2023-09-30T02:37:38;95486.81;;;16.69;78.22
47636;BME280;33364;50.766;15.338;2023-09-30T02:40:04;95483.66;;;16.67;78.43
47636;BME280;33364;50.766;15.338;2023-09-30T02:42:38;95492.94;;;16.70;78.13
47636;BME280;33364;50.766;15.338;2023-09-30T02:45:05;95491.66;;;16.67;77.78
47636;BME280;33364;50.766;15.338;2023-09-30T02:47:32;95496.38;;;16.70;77.48
47636;BME280;33364;50.766;15.338;2023-09-30T02:49:58;95503.75;;;16.73;78.11
47636;BME280;33364;50.766;15.338;2023-09-30T02:52:24;95511.13;;;16.76;78.19
47636;BME280;33364;50.766;15.338;2023-09-30T02:54:50;95502.31;;;16.67;78.41
47636;BME280;33364;50.766;15.338;2023-09-30T02:57:15;95505.94;;;16.71;78.20
47636;BME280;33364;50.766;15.338;2023-09-30T02:59:41;95510.09;;;16.55;78.81
47636;BME280;33364;50.766;15.338;2023-09-30T03:02:07;95500.88;;;16.61;78.80
47636;BME280;33364;50.766;15.338;2023-09-30T03:04:33;95497.53;;;16.56;78.53
47636;BME280;33364;50.766;15.338;2023-09-30T03:06:59;95504.44;;;16.48;78.54
47636;BME280;33364;50.766;15.338;2023-09-30T03:09:25;95497.81;;;16.45;78.88
47636;BME280;33364;50.766;15.338;2023-09-30T03:11:51;95509.13;;;16.42;79.17
47636;BME280;33364;50.766;15.338;2023-09-30T03:14:17;95509.41;;;16.41;79.32
47636;BME280;33364;50.766;15.338;2023-09-30T03:16:43;95512.56;;;16.43;79.16
47636;BME280;33364;50.766;15.338;2023-09-30T03:19:10;95519.94;;;16.46;79.44
47636;BME280;33364;50.766;15.338;2023-09-30T03:21:37;95512.25;;;16.44;79.17
47636;BME280;33364;50.766;15.338;2023-09-30T03:24:04;95511.66;;;16.47;78.75
47636;BME280;33364;50.766;15.338;2023-09-30T03:26:30;95522.16;;;16.44;79.43
47636;BME280;33364;50.766;15.338;2023-09-30T03:28:56;95528.06;;;16.41;79.17
47636;BME280;33364;50.766;15.338;2023-09-30T03:31:22;95531.03;;;16.39;79.10
47636;BME280;33364;50.766;15.338;2023-09-30T03:33:49;95532.47;;;16.37;79.68
47636;BME280;33364;50.766;15.338;2023-09-30T03:36:16;95536.88;;;16.41;79.65
47636;BME280;33364;50.766;15.338;2023-09-30T03:38:44;95523.53;;;16.41;79.64
47636;BME280;33364;50.766;15.338;2023-09-30T03:41:10;95529.31;;;16.35;79.73
47636;BME280;33364;50.766;15.338;2023-09-30T03:43:39;95542.09;;;16.24;80.31
47636;BME280;33364;50.766;15.338;2023-09-30T03:46:09;95541.00;;;16.17;79.34
47636;BME280;33364;50.766;15.338;2023-09-30T03:48:35;95542.25;;;16.19;79.50
47636;BME280;33364;50.766;15.338;2023-09-30T03:51:11;95546.31;;;16.17;80.09
47636;BME280;33364;50.766;15.338;2023-09-30T03:53:44;95543.66;;;16.17;79.86
47636;BME280;33364;50.766;15.338;2023-09-30T03:56:11;95547.16;;;16.03;79.82
47636;BME280;33364;50.766;15.338;2023-09-30T03:58:41;95551.25;;;16.01;80.10
47636;BME280;33364;50.766;15.338;2023-09-30T04:01:08;95545.38;;;15.90;80.55
47636;BME280;33364;50.766;15.338;2023-09-30T04:03:37;95554.97;;;15.91;80.16
47636;BME280;33364;50.766;15.338;2023-09-30T04:06:05;95554.75;;;15.88;79.77
47636;BME280;33364;50.766;15.338;2023-09-30T04:08:33;95559.53;;;15.77;80.32
47636;BME280;33364;50.766;15.338;2023-09-30T04:10:59;95566.50;;;15.65;80.75
47636;BME280;33364;50.766;15.338;2023-09-30T04:13:26;95565.41;;;15.66;80.80
47636;BME280;33364;50.766;15.338;2023-09-30T04:15:52;95554.81;;;15.52;81.26
47636;BME280;33364;50.766;15.338;2023-09-30T04:18:19;95557.69;;;15.42;81.41
47636;BME280;33364;50.766;15.338;2023-09-30T04:20:47;95560.94;;;15.39;81.41
47636;BME280;33364;50.766;15.338;2023-09-30T04:23:14;95567.81;;;15.40;81.51
47636;BME280;33364;50.766;15.338;2023-09-30T04:25:40;95574.22;;;15.16;82.80
47636;BME280;33364;50.766;15.338;2023-09-30T04:28:06;95591.66;;;15.23;82.58
47636;BME280;33364;50.766;15.338;2023-09-30T04:30:33;95594.78;;;15.25;83.17
47636;BME280;33364;50.766;15.338;2023-09-30T04:33:00;95596.06;;;15.27;83.92
47636;BME280;33364;50.766;15.338;2023-09-30T04:35:26;95601.28;;;15.18;85.61
47636;BME280;33364;50.766;15.338;2023-09-30T04:37:52;95604.38;;;15.12;86.45
47636;BME280;33364;50.766;15.338;2023-09-30T04:40:18;95596.28;;;15.03;87.24
47636;BME280;33364;50.766;15.338;2023-09-30T04:42:47;95615.97;;;15.02;87.33
47636;BME280;33364;50.766;15.338;2023-09-30T04:45:14;95617.56;;;15.03;87.18
47636;BME280;33364;50.766;15.338;2023-09-30T04:47:45;95623.09;;;14.93;86.34
47636;BME280;33364;50.766;15.338;2023-09-30T04:50:11;95628.88;;;14.82;86.81
47636;BME280;33364;50.766;15.338;2023-09-30T04:52:39;95633.31;;;14.86;86.30
47636;BME280;33364;50.766;15.338;2023-09-30T04:55:06;95637.09;;;14.85;85.96
47636;BME280;33364;50.766;15.338;2023-09-30T04:57:32;95640.72;;;14.89;85.83
47636;BME280;33364;50.766;15.338;2023-09-30T04:59:58;95643.84;;;14.91;85.68
47636;BME280;33364;50.766;15.338;2023-09-30T05:02:24;95639.66;;;14.90;85.44
47636;BME280;33364;50.766;15.338;2023-09-30T05:04:50;95648.09;;;14.92;85.66
47636;BME280;33364;50.766;15.338;2023-09-30T05:07:16;95659.81;;;14.91;84.66
47636;BME280;33364;50.766;15.338;2023-09-30T05:09:42;95666.03;;;14.87;83.34
47636;BME280;33364;50.766;15.338;2023-09-30T05:12:08;95662.69;;;14.95;83.68
47636;BME280;33364;50.766;15.338;2023-09-30T05:14:35;95658.75;;;14.78;83.75
47636;BME280;33364;50.766;15.338;2023-09-30T05:17:02;95658.13;;;14.68;83.00
47636;BME280;33364;50.766;15.338;2023-09-30T05:19:30;95673.28;;;14.67;82.63
47636;BME280;33364;50.766;15.338;2023-09-30T05:21:58;95682.03;;;14.54;81.61
47636;BME280;33364;50.766;15.338;2023-09-30T05:24:23;95679.44;;;14.49;81.04
47636;BME280;33364;50.766;15.338;2023-09-30T05:26:49;95684.00;;;14.49;81.13
47636;BME280;33364;50.766;15.338;2023-09-30T05:29:14;95681.72;;;14.42;80.58
47636;BME280;33364;50.766;15.338;2023-09-30T05:31:42;95682.50;;;14.43;81.35
47636;BME280;33364;50.766;15.338;2023-09-30T05:34:07;95684.16;;;14.38;80.78
47636;BME280;33364;50.766;15.338;2023-09-30T05:36:33;95686.81;;;14.38;80.67
47636;BME280;33364;50.766;15.338;2023-09-30T05:38:59;95684.97;;;14.20;79.76
47636;BME280;33364;50.766;15.338;2023-09-30T05:41:25;95695.41;;;14.30;79.12
47636;BME280;33364;50.766;15.338;2023-09-30T05:43:53;95699.22;;;14.24;79.59
47636;BME280;33364;50.766;15.338;2023-09-30T05:46:19;95710.13;;;14.23;79.66
47636;BME280;33364;50.766;15.338;2023-09-30T05:48:44;95704.03;;;14.22;79.66
47636;BME280;33364;50.766;15.338;2023-09-30T05:51:10;95711.94;;;14.27;79.70
47636;BME280;33364;50.766;15.338;2023-09-30T05:53:40;95720.19;;;14.26;79.80
47636;BME280;33364;50.766;15.338;2023-09-30T05:56:07;95720.75;;;14.23;79.94
47636;BME280;33364;50.766;15.338;2023-09-30T05:58:34;95720.34;;;13.97;79.03
47636;BME280;33364;50.766;15.338;2023-09-30T06:01:01;95717.13;;;14.00;78.85
47636;BME280;33364;50.766;15.338;2023-09-30T06:03:27;95724.00;;;14.01;79.74
47636;BME280;33364;50.766;15.338;2023-09-30T06:05:55;95725.09;;;14.00;78.95
47636;BME280;33364;50.766;15.338;2023-09-30T06:08:21;95730.34;;;14.05;79.18
47636;BME280;33364;50.766;15.338;2023-09-30T06:10:47;95722.06;;;14.07;78.62
47636;BME280;33364;50.766;15.338;2023-09-30T06:13:13;95726.72;;;13.96;79.79
47636;BME280;33364;50.766;15.338;2023-09-30T06:15:42;95728.69;;;13.90;79.83
47636;BME280;33364;50.766;15.338;2023-09-30T06:18:09;95725.41;;;13.80;78.89
47636;BME280;33364;50.766;15.338;2023-09-30T06:20:37;95728.00;;;13.61;78.09
47636;BME280;33364;50.766;15.338;2023-09-30T06:23:03;95742.22;;;13.51;79.04
47636;BME280;33364;50.766;15.338;2023-09-30T06:25:29;95742.44;;;13.31;79.00
47636;BME280;33364;50.766;15.338;2023-09-30T06:27:56;95747.16;;;13.10;77.46
47636;BME280;33364;50.766;15.338;2023-09-30T06:30:23;95742.38;;;13.13;75.91
47636;BME280;33364;50.766;15.338;2023-09-30T06:33:00;95753.75;;;12.89;76.32
47636;BME280;33364;50.766;15.338;2023-09-30T06:35:27;95756.28;;;12.99;76.81
47636;BME280;33364;50.766;15.338;2023-09-30T06:37:55;95771.44;;;12.94;76.32
47636;BME280;33364;50.766;15.338;2023-09-30T06:40:21;95772.69;;;12.73;76.48
47636;BME280;33364;50.766;15.338;2023-09-30T06:42:47;95780.94;;;12.71;76.52
47636;BME280;33364;50.766;15.338;2023-09-30T06:45:13;95786.38;;;12.85;75.13
47636;BME280;33364;50.766;15.338;2023-09-30T06:47:40;95797.00;;;12.85;75.03
47636;BME280;33364;50.766;15.338;2023-09-30T06:50:11;95801.94;;;12.62;74.54
47636;BME280;33364;50.766;15.338;2023-09-30T06:52:39;95794.00;;;12.62;74.51
47636;BME280;33364;50.766;15.338;2023-09-30T06:55:07;95787.72;;;12.82;75.75
47636;BME280;33364;50.766;15.338;2023-09-30T06:57:37;95787.25;;;12.75;74.80
47636;BME280;33364;50.766;15.338;2023-09-30T07:00:07;95790.06;;;12.55;75.71
47636;BME280;33364;50.766;15.338;2023-09-30T07:02:35;95792.88;;;12.68;76.06
47636;BME280;33364;50.766;15.338;2023-09-30T07:05:11;95803.31;;;12.55;75.90
47636;BME280;33364;50.766;15.338;2023-09-30T07:07:38;95809.84;;;12.67;75.01
47636;BME280;33364;50.766;15.338;2023-09-30T07:10:05;95822.41;;;12.52;75.84
47636;BME280;33364;50.766;15.338;2023-09-30T07:12:31;95830.44;;;12.76;74.24
47636;BME280;33364;50.766;15.338;2023-09-30T07:15:05;95822.06;;;12.63;74.94
47636;BME280;33364;50.766;15.338;2023-09-30T07:17:32;95810.81;;;12.77;74.44
47636;BME280;33364;50.766;15.338;2023-09-30T07:19:58;95816.47;;;12.99;73.32
47636;BME280;33364;50.766;15.338;2023-09-30T07:22:23;95805.53;;;13.34;72.41
47636;BME280;33364;50.766;15.338;2023-09-30T07:24:49;95808.59;;;13.46;70.32
47636;BME280;33364;50.766;15.338;2023-09-30T07:27:16;95807.03;;;13.69;68.06
47636;BME280;33364;50.766;15.338;2023-09-30T07:29:43;95809.44;;;13.66;69.23
47636;BME280;33364;50.766;15.338;2023-09-30T07:32:09;95823.63;;;13.80;68.51
47636;BME280;33364;50.766;15.338;2023-09-30T07:34:35;95826.22;;;13.37;67.92
47636;BME280;33364;50.766;15.338;2023-09-30T07:39:27;95840.44;;;13.18;67.83
47636;BME280;33364;50.766;15.338;2023-09-30T07:41:52;95850.31;;;13.12;68.82
47636;BME280;33364;50.766;15.338;2023-09-30T07:44:18;95853.91;;;12.92;69.15
47636;BME280;33364;50.766;15.338;2023-09-30T07:46:45;95856.91;;;12.81;69.31
47636;BME280;33364;50.766;15.338;2023-09-30T07:49:11;95868.31;;;12.81;70.07
47636;BME280;33364;50.766;15.338;2023-09-30T07:51:37;95867.25;;;12.82;68.83
47636;BME280;33364;50.766;15.338;2023-09-30T07:54:05;95871.94;;;12.90;70.26
47636;BME280;33364;50.766;15.338;2023-09-30T07:56:31;95883.28;;;12.96;69.92
47636;BME280;33364;50.766;15.338;2023-09-30T07:58:57;95889.91;;;12.98;68.25
47636;BME280;33364;50.766;15.338;2023-09-30T08:01:23;95873.34;;;13.17;67.45
47636;BME280;33364;50.766;15.338;2023-09-30T08:03:48;95889.34;;;13.01;68.58
47636;BME280;33364;50.766;15.338;2023-09-30T08:06:14;95884.63;;;13.32;68.28
47636;BME280;33364;50.766;15.338;2023-09-30T08:08:40;95897.31;;;13.35;68.25
47636;BME280;33364;50.766;15.338;2023-09-30T08:11:06;95900.19;;;13.39;67.38
47636;BME280;33364;50.766;15.338;2023-09-30T08:13:33;95917.50;;;13.60;67.01
47636;BME280;33364;50.766;15.338;2023-09-30T08:16:01;95928.44;;;13.53;66.17
47636;BME280;33364;50.766;15.338;2023-09-30T08:18:27;95916.84;;;13.97;66.13
47636;BME280;33364;50.766;15.338;2023-09-30T08:20:53;95913.38;;;13.49;65.75
47636;BME280;33364;50.766;15.338;2023-09-30T08:23:19;95912.31;;;13.21;68.32
47636;BME280;33364;50.766;15.338;2023-09-30T08:25:44;95905.97;;;13.46;67.44
47636;BME280;33364;50.766;15.338;2023-09-30T08:28:12;95909.00;;;13.34;67.36
47636;BME280;33364;50.766;15.338;2023-09-30T08:30:38;95899.13;;;13.40;67.63
47636;BME280;33364;50.766;15.338;2023-09-30T08:33:04;95905.59;;;13.58;67.16
47636;BME280;33364;50.766;15.338;2023-09-30T08:35:35;95913.16;;;13.45;69.10
47636;BME280;33364;50.766;15.338;2023-09-30T08:38:02;95911.34;;;13.41;68.23
47636;BME280;33364;50.766;15.338;2023-09-30T08:40:29;95911.91;;;13.33;67.71
47636;BME280;33364;50.766;15.338;2023-09-30T08:42:55;95913.88;;;13.22;67.46
47636;BME280;33364;50.766;15.338;2023-09-30T08:45:21;95911.03;;;13.14;68.65
47636;BME280;33364;50.766;15.338;2023-09-30T08:47:47;95905.22;;;13.69;69.01
47636;BME280;33364;50.766;15.338;2023-09-30T08:50:13;95903.06;;;13.47;67.69
47636;BME280;33364;50.766;15.338;2023-09-30T08:52:40;95896.97;;;13.47;67.16
47636;BME280;33364;50.766;15.338;2023-09-30T08:55:11;95905.81;;;13.37;67.59
47636;BME280;33364;50.766;15.338;2023-09-30T08:57:38;95896.94;;;13.18;67.26
47636;BME280;33364;50.766;15.338;2023-09-30T09:00:09;95895.69;;;13.39;67.01
47636;BME280;33364;50.766;15.338;2023-09-30T09:02:37;95885.44;;;13.28;68.14
47636;BME280;33364;50.766;15.338;2023-09-30T09:05:04;95882.06;;;13.75;66.81
47636;BME280;33364;50.766;15.338;2023-09-30T09:07:29;95878.84;;;13.78;65.96
47636;BME280;33364;50.766;15.338;2023-09-30T09:10:11;95872.84;;;14.15;64.02
47636;BME280;33364;50.766;15.338;2023-09-30T09:12:41;95877.34;;;13.95;65.34
47636;BME280;33364;50.766;15.338;2023-09-30T09:15:26;95880.31;;;13.89;65.23
47636;BME280;33364;50.766;15.338;2023-09-30T09:17:52;95882.53;;;14.24;64.56
47636;BME280;33364;50.766;15.338;2023-09-30T09:20:20;95881.22;;;14.46;64.30
47636;BME280;33364;50.766;15.338;2023-09-30T09:22:47;95896.88;;;14.23;64.40
47636;BME280;33364;50.766;15.338;2023-09-30T09:25:14;95909.84;;;14.30;63.60
47636;BME280;33364;50.766;15.338;2023-09-30T09:27:39;95915.72;;;14.27;63.46
47636;BME280;33364;50.766;15.338;2023-09-30T09:30:23;95924.47;;;14.70;61.45
47636;BME280;33364;50.766;15.338;2023-09-30T09:35:21;95920.19;;;14.08;62.09
47636;BME280;33364;50.766;15.338;2023-09-30T09:37:55;95914.53;;;14.14;62.50
47636;BME280;33364;50.766;15.338;2023-09-30T09:40:26;95913.78;;;14.56;63.32
47636;BME280;33364;50.766;15.338;2023-09-30T09:42:54;95913.16;;;14.64;61.63
47636;BME280;33364;50.766;15.338;2023-09-30T09:45:27;95902.50;;;14.83;64.06
47636;BME280;33364;50.766;15.338;2023-09-30T09:47:54;95912.75;;;15.08;61.70
47636;BME280;33364;50.766;15.338;2023-09-30T09:50:22;95905.66;;;15.17;61.24
47636;BME280;33364;50.766;15.338;2023-09-30T09:52:49;95911.25;;;15.35;60.41
47636;BME280;33364;50.766;15.338;2023-09-30T09:55:24;95917.38;;;15.35;59.41
47636;BME280;33364;50.766;15.338;2023-09-30T09:57:50;95935.28;;;14.78;60.13
47636;BME280;33364;50.766;15.338;2023-09-30T10:00:26;95940.06;;;14.58;60.90
47636;BME280;33364;50.766;15.338;2023-09-30T10:02:52;95929.19;;;14.54;61.54
47636;BME280;33364;50.766;15.338;2023-09-30T10:05:20;95944.16;;;14.50;61.70
47636;BME280;33364;50.766;15.338;2023-09-30T10:07:54;95954.06;;;14.45;61.95
47636;BME280;33364;50.766;15.338;2023-09-30T10:10:23;95944.09;;;14.31;62.98
47636;BME280;33364;50.766;15.338;2023-09-30T10:12:49;95940.44;;;14.04;62.27
47636;BME280;33364;50.766;15.338;2023-09-30T10:18:11;95925.91;;;14.81;60.58
47636;BME280;33364;50.766;15.338;2023-09-30T10:20:39;95914.16;;;14.68;61.03
47636;BME280;33364;50.766;15.338;2023-09-30T10:23:20;95914.94;;;14.69;61.33
47636;BME280;33364;50.766;15.338;2023-09-30T10:25:47;95916.50;;;14.89;61.00
47636;BME280;33364;50.766;15.338;2023-09-30T10:31:19;95910.69;;;15.38;58.49
47636;BME280;33364;50.766;15.338;2023-09-30T10:36:29;95919.31;;;15.30;57.59
47636;BME280;33364;50.766;15.338;2023-09-30T10:38:56;95922.41;;;15.37;58.18
47636;BME280;33364;50.766;15.338;2023-09-30T10:46:48;95945.72;;;16.73;55.05
47636;BME280;33364;50.766;15.338;2023-09-30T10:51:53;95943.09;;;16.81;54.78
47636;BME280;33364;50.766;15.338;2023-09-30T10:54:28;95930.91;;;16.53;56.60
47636;BME280;33364;50.766;15.338;2023-09-30T10:56:55;95930.91;;;16.67;55.00
47636;BME280;33364;50.766;15.338;2023-09-30T10:59:26;95928.22;;;16.80;55.25
47636;BME280;33364;50.766;15.338;2023-09-30T11:01:53;95925.22;;;16.82;54.77
47636;BME280;33364;50.766;15.338;2023-09-30T11:04:19;95919.41;;;16.80;55.11
47636;BME280;33364;50.766;15.338;2023-09-30T11:06:46;95926.69;;;16.38;54.55
47636;BME280;33364;50.766;15.338;2023-09-30T11:09:20;95931.31;;;16.33;55.40
47636;BME280;33364;50.766;15.338;2023-09-30T11:11:52;95930.69;;;16.77;54.71
47636;BME280;33364;50.766;15.338;2023-09-30T11:14:30;95933.34;;;17.13;53.97
47636;BME280;33364;50.766;15.338;2023-09-30T11:17:01;95939.91;;;17.07;51.72
47636;BME280;33364;50.766;15.338;2023-09-30T11:19:46;95944.78;;;17.13;54.44
47636;BME280;33364;50.766;15.338;2023-09-30T11:22:13;95944.09;;;17.44;51.49
47636;BME280;33364;50.766;15.338;2023-09-30T11:24:40;95951.38;;;16.94;54.01
47636;BME280;33364;50.766;15.338;2023-09-30T11:27:06;95945.22;;;17.51;53.86
47636;BME280;33364;50.766;15.338;2023-09-30T11:29:32;95940.22;;;17.50;52.63
47636;BME280;33364;50.766;15.338;2023-09-30T11:31:58;95938.09;;;17.60;50.91
47636;BME280;33364;50.766;15.338;2023-09-30T11:34:34;95936.13;;;17.75;50.75
47636;BME280;33364;50.766;15.338;2023-09-30T11:37:01;95941.38;;;17.88;50.19
47636;BME280;33364;50.766;15.338;2023-09-30T11:39:28;95930.63;;;17.26;51.82
47636;BME280;33364;50.766;15.338;2023-09-30T11:41:55;95936.97;;;17.84;51.09
47636;BME280;33364;50.766;15.338;2023-09-30T11:44:23;95943.91;;;17.40;50.59
47636;BME280;33364;50.766;15.338;2023-09-30T11:46:50;95935.59;;;17.19;51.21
47636;BME280;33364;50.766;15.338;2023-09-30T11:49:37;95938.34;;;16.92;52.67
47636;BME280;33364;50.766;15.338;2023-09-30T11:52:07;95935.91;;;17.18;52.65
47636;BME280;33364;50.766;15.338;2023-09-30T11:54:41;95942.69;;;17.46;52.75
47636;BME280;33364;50.766;15.338;2023-09-30T11:57:10;95942.75;;;17.55;51.28
47636;BME280;33364;50.766;15.338;2023-09-30T11:59:37;95943.88;;;16.96;51.81
47636;BME280;33364;50.766;15.338;2023-09-30T12:02:03;95941.78;;;16.70;52.93
47636;BME280;33364;50.766;15.338;2023-09-30T12:04:31;95940.88;;;16.34;53.36
47636;BME280;33364;50.766;15.338;2023-09-30T12:06:57;95926.97;;;16.64;52.45
47636;BME280;33364;50.766;15.338;2023-09-30T12:09:23;95935.66;;;16.29;51.04
47636;BME280;33364;50.766;15.338;2023-09-30T12:11:52;95927.16;;;16.68;49.57
47636;BME280;33364;50.766;15.338;2023-09-30T12:14:19;95919.06;;;16.59;49.85
47636;BME280;33364;50.766;15.338;2023-09-30T12:16:47;95919.47;;;16.39;50.78
47636;BME280;33364;50.766;15.338;2023-09-30T12:19:16;95918.19;;;16.36;51.32
47636;BME280;33364;50.766;15.338;2023-09-30T12:21:44;95915.56;;;17.08;51.04
47636;BME280;33364;50.766;15.338;2023-09-30T12:24:13;95927.13;;;17.04;50.61
47636;BME280;33364;50.766;15.338;2023-09-30T12:26:43;95930.03;;;16.94;49.79
47636;BME280;33364;50.766;15.338;2023-09-30T12:29:17;95942.13;;;16.91;49.87
47636;BME280;33364;50.766;15.338;2023-09-30T12:31:44;95929.78;;;16.81;51.03
47636;BME280;33364;50.766;15.338;2023-09-30T12:34:11;95935.03;;;17.09;49.96
47636;BME280;33364;50.766;15.338;2023-09-30T12:36:41;95940.97;;;16.56;50.14
47636;BME280;33364;50.766;15.338;2023-09-30T12:39:08;95948.38;;;16.86;50.63
47636;BME280;33364;50.766;15.338;2023-09-30T12:41:38;95940.41;;;16.59;52.22
47636;BME280;33364;50.766;15.338;2023-09-30T12:44:05;95925.84;;;16.79;51.91
47636;BME280;33364;50.766;15.338;2023-09-30T12:46:31;95929.63;;;17.00;51.66
47636;BME280;33364;50.766;15.338;2023-09-30T12:49:01;95915.66;;;17.03;51.77
47636;BME280;33364;50.766;15.338;2023-09-30T12:51:28;95915.94;;;17.38;51.19
47636;BME280;33364;50.766;15.338;2023-09-30T12:53:53;95918.16;;;17.00;51.50
47636;BME280;33364;50.766;15.338;2023-09-30T12:56:20;95910.72;;;17.33;51.33
47636;BME280;33364;50.766;15.338;2023-09-30T12:58:46;95911.84;;;17.40;52.19
47636;BME280;33364;50.766;15.338;2023-09-30T13:01:12;95909.88;;;17.01;52.45
47636;BME280;33364;50.766;15.338;2023-09-30T13:03:37;95906.66;;;17.13;53.41
47636;BME280;33364;50.766;15.338;2023-09-30T13:06:04;95900.75;;;17.69;51.81
47636;BME280;33364;50.766;15.338;2023-09-30T13:08:30;95899.38;;;17.05;52.50
47636;BME280;33364;50.766;15.338;2023-09-30T13:11:03;95907.72;;;16.89;52.44
47636;BME280;33364;50.766;15.338;2023-09-30T13:13:32;95902.25;;;16.72;52.84